createdAt,value
2022-09-15T00:00:33.012Z,94.79
2022-09-15T00:01:35.730Z,94.41
2022-09-15T00:02:40.185Z,94.36
2022-09-15T00:03:43.303Z,94.37
2022-09-15T00:04:45.784Z,94.37
2022-09-15T00:05:48.697Z,94.37
2022-09-15T00:06:50.790Z,94.64
2022-09-15T00:07:52.650Z,94.63
2022-09-15T00:08:55.184Z,95.10
2022-09-15T00:09:56.985Z,95.10
2022-09-15T00:11:08.532Z,95.03
2022-09-15T00:12:10.607Z,95.14
2022-09-15T00:13:12.635Z,95.04
2022-09-15T00:14:14.686Z,95.17
2022-09-15T00:15:16.614Z,95.14
2022-09-15T00:16:23.118Z,95.50
2022-09-15T00:17:26.029Z,95.79
2022-09-15T00:18:28.192Z,96.11
2022-09-15T00:19:30.015Z,96.34
2022-09-15T00:20:32.731Z,96.51
2022-09-15T00:21:37.957Z,96.74
2022-09-15T00:22:40.124Z,97.11
2022-09-15T00:23:42.536Z,97.13
2022-09-15T00:24:44.566Z,97.17
2022-09-15T00:25:50.069Z,97.47
2022-09-15T00:26:52.710Z,97.58
2022-09-15T00:27:54.532Z,97.73
2022-09-15T00:28:57.672Z,97.54
2022-09-15T00:29:59.968Z,97.57
2022-09-15T00:31:05.556Z,97.71
2022-09-15T00:32:07.722Z,97.61
2022-09-15T00:33:10.850Z,97.52
2022-09-15T00:34:13.213Z,97.50
2022-09-15T00:35:15.351Z,98.06
2022-09-15T00:36:20.188Z,98.35
2022-09-15T00:37:22.227Z,98.35
2022-09-15T00:38:24.049Z,98.62
2022-09-15T00:39:25.862Z,98.85
2022-09-15T00:40:29.569Z,98.60
2022-09-15T00:41:32.293Z,98.52
2022-09-15T00:42:34.215Z,99.03
2022-09-15T00:43:51.842Z,99.33
2022-09-15T00:44:57.579Z,99.33
2022-09-15T00:45:59.631Z,99.56
2022-09-15T00:47:18.643Z,99.54
2022-09-15T00:48:12.010Z,99.67
2022-09-15T00:49:24.832Z,99.65
2022-09-15T00:50:27.288Z,99.57
2022-09-15T00:51:35.442Z,99.15
2022-09-15T00:52:41.052Z,98.87
2022-09-15T00:53:45.602Z,98.97
2022-09-15T00:55:01.163Z,99.07
2022-09-15T00:56:06.658Z,98.97
2022-09-15T00:57:21.377Z,98.75
2022-09-15T00:58:26.991Z,98.31
2022-09-15T00:59:32.133Z,98.62
2022-09-15T01:00:34.784Z,99.05
2022-09-15T01:01:38.634Z,99.21
2022-09-15T01:02:43.107Z,99.20
2022-09-15T01:03:45.295Z,99.29
2022-09-15T01:04:48.799Z,99.36
2022-09-15T01:05:54.891Z,99.43
2022-09-15T01:07:00.704Z,99.38
2022-09-15T01:08:09.803Z,98.96
2022-09-15T01:09:18.417Z,98.45
2022-09-15T01:10:26.781Z,97.85
2022-09-15T01:11:29.788Z,97.86
2022-09-15T01:12:32.674Z,97.80
2022-09-15T01:13:34.929Z,97.87
2022-09-15T01:14:36.864Z,97.77
2022-09-15T01:15:48.699Z,97.58
2022-09-15T01:17:15.751Z,97.54
2022-09-15T01:18:36.759Z,97.50
2022-09-15T01:19:59.356Z,97.50
2022-09-15T01:21:29.368Z,97.68
2022-09-15T01:23:06.546Z,98.39
2022-09-15T01:24:47.180Z,98.81
2022-09-15T01:27:42.401Z,99.03
2022-09-15T01:29:02.203Z,99.32
2022-09-15T01:31:40.933Z,99.43
2022-09-15T01:32:52.916Z,99.28
2022-09-15T01:33:58.500Z,99.36
2022-09-15T01:35:19.355Z,99.52
2022-09-15T01:37:51.400Z,99.11
2022-09-15T01:39:09.845Z,99.35
2022-09-15T01:40:14.927Z,99.54
2022-09-15T01:41:20.318Z,99.52
2022-09-15T01:42:24.900Z,99.64
2022-09-15T01:43:29.405Z,99.57
2022-09-15T01:44:43.856Z,99.22
2022-09-15T01:45:48.477Z,99.25
2022-09-15T01:46:58.139Z,98.99
2022-09-15T01:48:03.532Z,99.00
2022-09-15T01:49:09.122Z,99.05
2022-09-15T01:50:14.941Z,99.05
2022-09-15T01:51:17.735Z,98.91
2022-09-15T01:52:23.356Z,98.82
2022-09-15T01:53:26.932Z,98.75
2022-09-15T01:54:35.938Z,98.19
2022-09-15T01:55:44.506Z,98.37
2022-09-15T01:56:47.073Z,98.55
2022-09-15T01:57:49.067Z,98.26
2022-09-15T01:58:51.184Z,98.17
2022-09-15T01:59:55.429Z,98.27
2022-09-15T02:01:10.007Z,98.39
2022-09-15T02:02:15.909Z,98.22
2022-09-15T02:03:28.206Z,97.80
2022-09-15T02:04:43.295Z,97.87
2022-09-15T02:05:51.671Z,97.78
2022-09-15T02:07:12.875Z,97.90
2022-09-15T02:08:22.006Z,98.00
2022-09-15T02:09:27.604Z,97.92
2022-09-15T02:10:33.494Z,97.66
2022-09-15T02:11:38.508Z,97.48
2022-09-15T02:12:59.465Z,97.18
2022-09-15T02:14:07.906Z,96.82
2022-09-15T02:15:13.548Z,96.60
2022-09-15T02:16:20.219Z,96.20
2022-09-15T02:17:25.520Z,96.28
2022-09-15T02:18:31.141Z,96.41
2022-09-15T02:19:39.407Z,96.55
2022-09-15T02:20:47.957Z,96.70
2022-09-15T02:22:13.751Z,96.75
2022-09-15T02:23:31.645Z,96.59
2022-09-15T02:24:40.344Z,96.26
2022-09-15T02:25:52.083Z,96.31
2022-09-15T02:26:54.367Z,96.20
2022-09-15T02:27:59.895Z,96.23
2022-09-15T02:29:05.552Z,96.24
2022-09-15T02:30:11.404Z,96.69
2022-09-15T02:31:16.543Z,96.54
2022-09-15T02:32:22.195Z,96.53
2022-09-15T02:33:27.788Z,96.43
2022-09-15T02:34:33.103Z,96.60
2022-09-15T02:35:38.902Z,96.66
2022-09-15T02:36:42.809Z,96.59
2022-09-15T02:37:45.925Z,97.34
2022-09-15T02:38:53.933Z,97.47
2022-09-15T02:39:58.435Z,97.90
2022-09-15T02:41:01.738Z,97.98
2022-09-15T02:42:04.660Z,97.93
2022-09-15T02:43:12.927Z,97.83
2022-09-15T02:44:15.083Z,98.10
2022-09-15T02:45:17.331Z,98.34
2022-09-15T02:46:21.977Z,98.44
2022-09-15T02:47:25.767Z,98.38
2022-09-15T02:48:28.118Z,97.71
2022-09-15T02:49:30.378Z,97.71
2022-09-15T02:50:33.163Z,97.68
2022-09-15T02:51:35.172Z,97.83
2022-09-15T02:52:37.189Z,97.88
2022-09-15T02:53:39.165Z,97.67
2022-09-15T02:54:41.449Z,97.21
2022-09-15T02:55:43.126Z,97.23
2022-09-15T02:56:45.557Z,97.11
2022-09-15T02:57:47.802Z,96.45
2022-09-15T02:58:49.695Z,96.71
2022-09-15T02:59:51.449Z,96.96
2022-09-15T03:00:53.496Z,97.09
2022-09-15T03:01:56.025Z,97.10
2022-09-15T03:02:58.229Z,97.18
2022-09-15T03:04:02.899Z,97.14
2022-09-15T03:05:06.760Z,97.27
2022-09-15T03:06:11.133Z,97.10
2022-09-15T03:07:13.546Z,97.31
2022-09-15T03:08:15.884Z,97.70
2022-09-15T03:09:17.780Z,97.65
2022-09-15T03:10:22.307Z,97.59
2022-09-15T03:11:26.310Z,97.71
2022-09-15T03:12:28.789Z,97.87
2022-09-15T03:13:30.678Z,97.81
2022-09-15T03:14:32.726Z,98.06
2022-09-15T03:15:34.833Z,98.06
2022-09-15T03:16:36.951Z,97.86
2022-09-15T03:17:41.219Z,97.89
2022-09-15T03:18:45.326Z,98.07
2022-09-15T03:19:47.326Z,98.22
2022-09-15T03:20:49.362Z,98.26
2022-09-15T03:21:51.529Z,98.10
2022-09-15T03:22:54.242Z,98.37
2022-09-15T03:23:57.829Z,98.01
2022-09-15T03:25:00.087Z,98.15
2022-09-15T03:26:03.262Z,97.85
2022-09-15T03:27:05.842Z,97.88
2022-09-15T03:28:07.618Z,97.98
2022-09-15T03:29:09.447Z,98.18
2022-09-15T03:30:13.524Z,98.07
2022-09-15T03:31:16.359Z,97.59
2022-09-15T03:32:18.894Z,97.57
2022-09-15T03:33:21.884Z,97.64
2022-09-15T03:34:23.981Z,97.71
2022-09-15T03:35:25.886Z,97.62
2022-09-15T03:36:28.436Z,96.81
2022-09-15T03:37:30.462Z,96.64
2022-09-15T03:38:32.537Z,96.79
2022-09-15T03:39:34.453Z,96.82
2022-09-15T03:40:36.690Z,96.71
2022-09-15T03:41:38.737Z,96.29
2022-09-15T03:42:40.627Z,95.84
2022-09-15T03:43:45.372Z,95.75
2022-09-15T03:44:48.559Z,95.65
2022-09-15T03:45:50.671Z,95.69
2022-09-15T03:46:52.840Z,95.66
2022-09-15T03:47:54.578Z,95.82
2022-09-15T03:48:56.437Z,95.82
2022-09-15T03:49:58.161Z,95.88
2022-09-15T03:51:00.976Z,96.41
2022-09-15T03:52:03.133Z,96.41
2022-09-15T03:53:05.509Z,96.23
2022-09-15T03:54:07.723Z,96.05
2022-09-15T03:55:11.617Z,95.78
2022-09-15T03:56:26.771Z,95.78
2022-09-15T03:57:28.719Z,95.69
2022-09-15T03:58:31.038Z,95.54
2022-09-15T03:59:34.117Z,95.38
2022-09-15T04:00:36.848Z,95.76
2022-09-15T04:01:40.268Z,96.10
2022-09-15T04:02:42.493Z,96.09
2022-09-15T04:03:50.139Z,96.03
2022-09-15T04:04:50.218Z,95.88
2022-09-15T04:05:52.240Z,96.00
2022-09-15T04:06:54.209Z,95.74
2022-09-15T04:07:55.988Z,95.82
2022-09-15T04:08:58.526Z,95.84
2022-09-15T04:10:00.440Z,95.86
2022-09-15T04:11:07.560Z,95.58
2022-09-15T04:12:09.410Z,95.42
2022-09-15T04:13:11.238Z,95.70
2022-09-15T04:14:13.018Z,95.77
2022-09-15T04:15:14.835Z,95.77
2022-09-15T04:16:19.617Z,96.17
2022-09-15T04:17:21.731Z,96.17
2022-09-15T04:18:23.664Z,96.20
2022-09-15T04:19:25.749Z,96.21
2022-09-15T04:20:27.968Z,96.14
2022-09-15T04:21:30.465Z,96.19
2022-09-15T04:22:33.223Z,96.07
2022-09-15T04:23:36.686Z,96.17
2022-09-15T04:24:38.761Z,96.00
2022-09-15T04:25:40.748Z,96.00
2022-09-15T04:26:44.355Z,95.62
2022-09-15T04:27:46.407Z,95.81
2022-09-15T04:28:48.295Z,95.62
2022-09-15T04:29:52.263Z,95.64
2022-09-15T04:30:58.667Z,95.43
2022-09-15T04:32:01.278Z,95.55
2022-09-15T04:33:04.166Z,95.69
2022-09-15T04:34:06.147Z,95.12
2022-09-15T04:35:08.793Z,95.08
2022-09-15T04:36:17.056Z,95.17
2022-09-15T04:37:19.123Z,94.83
2022-09-15T04:38:21.398Z,94.72
2022-09-15T04:39:23.314Z,94.74
2022-09-15T04:40:26.740Z,94.84
2022-09-15T04:41:28.917Z,94.96
2022-09-15T04:42:30.751Z,94.71
2022-09-15T04:43:33.608Z,93.87
2022-09-15T04:44:35.706Z,93.78
2022-09-15T04:45:37.620Z,93.65
2022-09-15T04:46:40.413Z,93.22
2022-09-15T04:47:42.570Z,93.01
2022-09-15T04:48:45.709Z,92.88
2022-09-15T04:49:47.651Z,92.84
2022-09-15T04:50:51.179Z,92.54
2022-09-15T04:51:54.152Z,92.37
2022-09-15T04:52:56.900Z,92.23
2022-09-15T04:53:58.821Z,91.83
2022-09-15T04:55:00.702Z,91.68
2022-09-15T04:56:09.072Z,91.69
2022-09-15T04:57:11.202Z,91.59
2022-09-15T04:58:13.299Z,91.46
2022-09-15T04:59:17.839Z,91.35
2022-09-15T05:00:20.477Z,91.21
2022-09-15T05:01:29.163Z,91.06
2022-09-15T05:02:33.170Z,90.80
2022-09-15T05:03:36.757Z,91.05
2022-09-15T05:04:38.754Z,91.04
2022-09-15T05:05:41.835Z,91.02
2022-09-15T05:06:43.987Z,90.99
2022-09-15T05:07:48.397Z,91.07
2022-09-15T05:08:52.773Z,91.22
2022-09-15T05:09:55.022Z,91.15
2022-09-15T05:11:02.325Z,91.31
2022-09-15T05:12:05.063Z,91.23
2022-09-15T05:13:07.261Z,91.17
2022-09-15T05:14:10.288Z,91.27
2022-09-15T05:15:12.620Z,91.39
2022-09-15T05:16:18.402Z,91.23
2022-09-15T05:17:23.999Z,91.39
2022-09-15T05:18:24.636Z,91.36
2022-09-15T05:19:27.723Z,91.41
2022-09-15T05:20:30.059Z,91.26
2022-09-15T05:21:32.609Z,91.21
2022-09-15T05:22:39.518Z,91.09
2022-09-15T05:23:40.148Z,90.94
2022-09-15T05:24:42.026Z,91.00
2022-09-15T05:25:45.765Z,91.36
2022-09-15T05:26:48.003Z,91.04
2022-09-15T05:27:50.539Z,91.24
2022-09-15T05:28:55.316Z,91.25
2022-09-15T05:30:23.490Z,90.80
2022-09-15T05:31:01.777Z,90.72
2022-09-15T05:32:04.018Z,90.16
2022-09-15T05:33:06.108Z,90.16
2022-09-15T05:34:08.923Z,90.32
2022-09-15T05:35:10.894Z,90.38
2022-09-15T05:36:14.747Z,90.30
2022-09-15T05:37:16.950Z,89.86
2022-09-15T05:38:18.915Z,89.86
2022-09-15T05:39:20.802Z,89.90
2022-09-15T05:40:23.128Z,89.94
2022-09-15T05:41:27.354Z,90.02
2022-09-15T05:42:30.337Z,90.03
2022-09-15T05:43:33.870Z,89.66
2022-09-15T05:44:36.398Z,89.65
2022-09-15T05:45:38.387Z,89.85
2022-09-15T05:46:40.394Z,89.68
2022-09-15T05:47:42.437Z,89.80
2022-09-15T05:48:46.146Z,89.79
2022-09-15T05:49:49.218Z,89.67
2022-09-15T05:50:53.185Z,89.58
2022-09-15T05:51:55.954Z,89.42
2022-09-15T05:52:58.467Z,89.43
2022-09-15T05:54:01.941Z,89.48
2022-09-15T05:55:04.476Z,89.32
2022-09-15T05:56:12.760Z,89.32
2022-09-15T05:57:14.749Z,89.50
2022-09-15T05:58:16.542Z,89.49
2022-09-15T05:59:18.496Z,89.20
2022-09-15T06:00:22.673Z,89.28
2022-09-15T06:01:27.751Z,89.20
2022-09-15T06:02:29.811Z,89.29
2022-09-15T06:03:32.434Z,89.41
2022-09-15T06:04:34.458Z,89.44
2022-09-15T06:05:36.464Z,89.44
2022-09-15T06:06:38.383Z,89.80
2022-09-15T06:07:40.676Z,89.69
2022-09-15T06:08:47.802Z,89.36
2022-09-15T06:09:49.257Z,89.50
2022-09-15T06:10:51.374Z,89.39
2022-09-15T06:11:53.670Z,89.35
2022-09-15T06:12:55.563Z,89.31
2022-09-15T06:14:02.062Z,89.38
2022-09-15T06:15:05.168Z,89.38
2022-09-15T06:16:13.565Z,89.79
2022-09-15T06:17:17.528Z,90.37
2022-09-15T06:18:19.473Z,90.97
2022-09-15T06:19:21.690Z,90.88
2022-09-15T06:20:23.974Z,90.81
2022-09-15T06:21:28.501Z,90.87
2022-09-15T06:22:30.469Z,90.87
2022-09-15T06:23:32.588Z,90.68
2022-09-15T06:24:34.407Z,90.77
2022-09-15T06:25:36.259Z,90.99
2022-09-15T06:26:38.258Z,90.99
2022-09-15T06:27:41.214Z,90.83
2022-09-15T06:28:56.853Z,90.82
2022-09-15T06:30:00.171Z,91.22
2022-09-15T06:31:02.602Z,91.48
2022-09-15T06:32:04.741Z,92.08
2022-09-15T06:33:06.920Z,92.38
2022-09-15T06:34:10.171Z,92.20
2022-09-15T06:35:12.009Z,92.20
2022-09-15T06:36:16.638Z,92.17
2022-09-15T06:37:19.116Z,92.23
2022-09-15T06:38:21.336Z,92.21
2022-09-15T06:39:23.126Z,92.35
2022-09-15T06:40:25.870Z,92.59
2022-09-15T06:41:38.217Z,92.42
2022-09-15T06:42:33.273Z,92.29
2022-09-15T06:43:38.034Z,92.31
2022-09-15T06:44:40.151Z,92.51
2022-09-15T06:45:42.090Z,92.83
2022-09-15T06:46:45.416Z,92.01
2022-09-15T06:48:07.405Z,92.14
2022-09-15T06:48:55.181Z,91.65
2022-09-15T06:49:57.163Z,91.68
2022-09-15T06:51:00.181Z,91.81
2022-09-15T06:52:02.265Z,91.84
2022-09-15T06:53:04.813Z,91.45
2022-09-15T06:54:06.716Z,91.42
2022-09-15T06:55:08.823Z,91.33
2022-09-15T06:56:13.693Z,91.36
2022-09-15T06:57:15.548Z,91.17
2022-09-15T06:58:17.287Z,91.24
2022-09-15T06:59:19.035Z,90.93
2022-09-15T07:00:23.096Z,91.11
2022-09-15T07:01:30.174Z,91.34
2022-09-15T07:02:32.400Z,91.34
2022-09-15T07:03:34.884Z,91.72
2022-09-15T07:04:37.617Z,91.69
2022-09-15T07:05:39.578Z,91.50
2022-09-15T07:06:42.133Z,91.72
2022-09-15T07:07:44.054Z,91.44
2022-09-15T07:08:46.586Z,91.40
2022-09-15T07:09:49.260Z,91.79
2022-09-15T07:10:51.573Z,92.33
2022-09-15T07:11:53.366Z,92.27
2022-09-15T07:12:55.489Z,92.04
2022-09-15T07:13:58.290Z,92.30
2022-09-15T07:15:00.268Z,91.99
2022-09-15T07:16:04.856Z,92.34
2022-09-15T07:17:06.872Z,90.98
2022-09-15T07:18:08.725Z,90.98
2022-09-15T07:19:11.847Z,91.29
2022-09-15T07:20:14.704Z,91.46
2022-09-15T07:21:19.463Z,91.00
2022-09-15T07:22:22.343Z,91.38
2022-09-15T07:23:24.329Z,92.14
2022-09-15T07:24:26.208Z,91.43
2022-09-15T07:25:29.088Z,91.64
2022-09-15T07:26:31.872Z,91.64
2022-09-15T07:27:33.795Z,90.84
2022-09-15T07:28:36.432Z,90.23
2022-09-15T07:29:38.268Z,91.20
2022-09-15T07:30:40.963Z,91.45
2022-09-15T07:31:43.088Z,90.96
2022-09-15T07:32:45.016Z,90.96
2022-09-15T07:33:47.760Z,90.51
2022-09-15T07:34:49.621Z,91.25
2022-09-15T07:35:52.191Z,91.46
2022-09-15T07:36:54.075Z,91.71
2022-09-15T07:37:56.483Z,91.52
2022-09-15T07:38:58.379Z,90.78
2022-09-15T07:40:00.804Z,90.26
2022-09-15T07:41:12.408Z,90.08
2022-09-15T07:42:15.552Z,89.82
2022-09-15T07:43:17.669Z,89.49
2022-09-15T07:44:19.480Z,89.01
2022-09-15T07:45:21.377Z,89.96
2022-09-15T07:46:25.340Z,90.23
2022-09-15T07:47:27.257Z,91.01
2022-09-15T07:48:30.024Z,90.73
2022-09-15T07:49:31.818Z,91.02
2022-09-15T07:50:34.782Z,90.81
2022-09-15T07:51:36.649Z,90.81
2022-09-15T07:52:38.564Z,90.94
2022-09-15T07:53:40.955Z,90.09
2022-09-15T07:54:42.904Z,90.29
2022-09-15T07:55:44.677Z,89.70
2022-09-15T07:56:46.680Z,89.94
2022-09-15T07:57:58.163Z,90.05
2022-09-15T07:59:00.632Z,90.08
2022-09-15T08:00:04.560Z,89.50
2022-09-15T08:01:09.576Z,89.42
2022-09-15T08:02:15.657Z,88.62
2022-09-15T08:03:20.084Z,88.62
2022-09-15T08:04:22.059Z,89.36
2022-09-15T08:05:25.248Z,89.94
2022-09-15T08:06:29.541Z,90.01
2022-09-15T08:07:31.644Z,89.51
2022-09-15T08:08:34.718Z,90.25
2022-09-15T08:09:37.158Z,90.74
2022-09-15T08:10:41.160Z,90.26
2022-09-15T08:11:43.679Z,90.20
2022-09-15T08:12:45.752Z,89.84
2022-09-15T08:13:49.343Z,89.58
2022-09-15T08:14:52.256Z,90.30
2022-09-15T08:15:54.244Z,89.46
2022-09-15T08:16:56.839Z,89.62
2022-09-15T08:17:58.830Z,89.45
2022-09-15T08:19:01.134Z,89.07
2022-09-15T08:20:04.081Z,88.74
2022-09-15T08:21:08.679Z,88.33
2022-09-15T08:22:10.673Z,88.08
2022-09-15T08:23:12.616Z,88.11
2022-09-15T08:24:14.589Z,87.81
2022-09-15T08:25:16.537Z,87.80
2022-09-15T08:26:19.654Z,88.37
2022-09-15T08:27:22.929Z,88.83
2022-09-15T08:28:25.577Z,88.87
2022-09-15T08:29:27.336Z,88.88
2022-09-15T08:30:30.503Z,88.44
2022-09-15T08:31:32.574Z,88.83
2022-09-15T08:32:34.688Z,88.35
2022-09-15T08:33:39.838Z,89.03
2022-09-15T08:34:41.376Z,88.81
2022-09-15T08:35:43.700Z,89.26
2022-09-15T08:36:46.213Z,88.90
2022-09-15T08:37:48.214Z,88.80
2022-09-15T08:38:50.030Z,88.11
2022-09-15T08:39:52.093Z,88.76
2022-09-15T08:41:00.916Z,88.84
2022-09-15T08:42:04.927Z,88.44
2022-09-15T08:43:10.522Z,88.68
2022-09-15T08:44:24.875Z,89.54
2022-09-15T08:45:30.421Z,88.92
2022-09-15T08:46:41.013Z,89.53
2022-09-15T08:47:46.847Z,89.18
2022-09-15T08:48:52.558Z,89.95
2022-09-15T08:50:27.369Z,89.56
2022-09-15T08:51:36.629Z,89.84
2022-09-15T08:52:59.503Z,89.86
2022-09-15T08:54:05.207Z,90.14
2022-09-15T08:55:20.580Z,90.07
2022-09-15T08:56:23.849Z,90.00
2022-09-15T08:57:25.997Z,90.10
2022-09-15T08:58:34.528Z,89.94
2022-09-15T08:59:37.746Z,89.48
2022-09-15T09:00:41.878Z,89.82
2022-09-15T09:02:14.733Z,89.97
2022-09-15T09:03:29.329Z,89.69
2022-09-15T09:04:44.249Z,89.02
2022-09-15T09:06:12.687Z,89.95
2022-09-15T09:07:38.748Z,89.61
2022-09-15T09:08:47.976Z,89.72
2022-09-15T09:10:08.773Z,92.06
2022-09-15T09:11:20.398Z,90.80
2022-09-15T09:12:55.209Z,90.43
2022-09-15T09:14:17.305Z,90.34
2022-09-15T09:15:41.882Z,89.80
2022-09-15T09:16:55.351Z,88.87
2022-09-15T09:18:07.850Z,89.37
2022-09-15T09:19:28.970Z,89.93
2022-09-15T09:20:50.192Z,89.51
2022-09-15T09:21:58.852Z,89.44
2022-09-15T09:23:04.506Z,89.31
2022-09-15T09:24:15.801Z,89.04
2022-09-15T09:25:27.353Z,90.87
2022-09-15T09:26:25.096Z,89.40
2022-09-15T09:27:31.107Z,88.72
2022-09-15T09:31:12.345Z,88.26
2022-09-15T09:32:21.506Z,88.01
2022-09-15T09:33:48.108Z,87.85
2022-09-15T09:35:22.088Z,86.68
2022-09-15T09:36:26.443Z,88.82
2022-09-15T09:37:29.058Z,87.73
2022-09-15T09:38:40.414Z,87.61
2022-09-15T09:39:42.365Z,87.42
2022-09-15T09:40:45.015Z,87.56
2022-09-15T09:41:47.324Z,88.32
2022-09-15T09:42:49.806Z,88.27
2022-09-15T09:43:55.417Z,87.79
2022-09-15T09:45:00.354Z,88.03
2022-09-15T09:46:02.364Z,87.70
2022-09-15T09:47:05.467Z,87.25
2022-09-15T09:48:23.368Z,88.12
2022-09-15T09:49:30.052Z,88.46
2022-09-15T09:50:35.879Z,87.83
2022-09-15T09:51:40.747Z,89.23
2022-09-15T09:52:42.595Z,89.09
2022-09-15T09:53:48.066Z,88.43
2022-09-15T09:54:54.168Z,87.95
2022-09-15T09:56:15.123Z,86.89
2022-09-15T09:57:23.356Z,86.75
2022-09-15T09:58:25.393Z,87.06
2022-09-15T09:59:34.244Z,86.78
2022-09-15T10:00:38.874Z,85.90
2022-09-15T10:01:40.895Z,85.14
2022-09-15T10:02:46.546Z,85.14
2022-09-15T10:03:48.729Z,84.21
2022-09-15T10:04:55.148Z,84.43
2022-09-15T10:06:13.783Z,84.82
2022-09-15T10:07:19.934Z,83.70
2022-09-15T10:08:22.194Z,84.71
2022-09-15T10:09:24.732Z,83.03
2022-09-15T10:10:28.719Z,85.25
2022-09-15T10:11:49.229Z,86.62
2022-09-15T10:12:57.250Z,84.03
2022-09-15T10:14:00.231Z,85.15
2022-09-15T10:15:06.101Z,85.29
2022-09-15T10:16:09.668Z,83.64
2022-09-15T10:17:18.089Z,83.69
2022-09-15T10:18:29.303Z,84.99
2022-09-15T10:19:34.966Z,84.72
2022-09-15T10:20:46.397Z,82.89
2022-09-15T10:21:50.015Z,84.78
2022-09-15T10:23:08.172Z,84.96
2022-09-15T10:24:30.719Z,85.87
2022-09-15T10:25:57.697Z,84.81
2022-09-15T10:26:42.812Z,83.87
2022-09-15T10:27:46.930Z,85.21
2022-09-15T10:29:18.310Z,84.41
2022-09-15T10:30:21.743Z,85.48
2022-09-15T10:31:29.202Z,84.30
2022-09-15T10:32:31.317Z,84.32
2022-09-15T10:33:38.745Z,84.85
2022-09-15T10:34:41.077Z,84.80
2022-09-15T10:35:43.282Z,84.04
2022-09-15T10:36:46.568Z,83.97
2022-09-15T10:38:10.218Z,83.97
2022-09-15T10:39:31.503Z,85.13
2022-09-15T10:40:49.643Z,84.57
2022-09-15T10:41:59.176Z,86.00
2022-09-15T10:43:29.403Z,83.63
2022-09-15T10:44:53.438Z,83.18
2022-09-15T10:46:08.404Z,85.76
2022-09-15T10:47:35.162Z,85.73
2022-09-15T10:48:49.445Z,84.22
2022-09-15T10:50:15.179Z,83.37
2022-09-15T10:51:39.150Z,82.94
2022-09-15T10:53:03.121Z,83.92
2022-09-15T10:54:20.952Z,80.79
2022-09-15T10:55:53.069Z,79.93
2022-09-15T10:56:54.469Z,80.81
2022-09-15T10:58:03.025Z,79.60
2022-09-15T10:59:31.299Z,80.24
2022-09-15T11:00:37.160Z,79.10
2022-09-15T11:02:09.709Z,78.96
2022-09-15T11:03:18.792Z,78.67
2022-09-15T11:04:47.721Z,78.89
2022-09-15T11:06:02.385Z,78.75
2022-09-15T11:07:20.349Z,78.40
2022-09-15T11:08:33.373Z,78.61
2022-09-15T11:09:54.055Z,79.83
2022-09-15T11:11:05.810Z,79.79
2022-09-15T11:12:14.185Z,78.91
2022-09-15T11:13:29.268Z,78.83
2022-09-15T11:14:44.181Z,78.79
2022-09-15T11:16:07.988Z,77.89
2022-09-15T11:17:26.446Z,80.88
2022-09-15T11:18:49.478Z,80.97
2022-09-15T11:20:13.802Z,80.51
2022-09-15T11:21:30.960Z,79.06
2022-09-15T11:22:37.137Z,78.70
2022-09-15T11:24:04.148Z,77.71
2022-09-15T11:25:18.703Z,77.31
2022-09-15T11:26:38.276Z,80.17
2022-09-15T11:27:43.865Z,77.98
2022-09-15T11:28:55.642Z,78.85
2022-09-15T11:30:22.850Z,78.54
2022-09-15T11:31:28.495Z,77.49
2022-09-15T11:32:40.439Z,77.74
2022-09-15T11:33:58.602Z,77.21
2022-09-15T11:35:26.774Z,79.00
2022-09-15T11:36:45.619Z,78.17
2022-09-15T11:37:50.983Z,76.47
2022-09-15T11:39:08.534Z,76.95
2022-09-15T11:40:29.032Z,77.62
2022-09-15T11:41:48.098Z,75.74
2022-09-15T11:44:17.243Z,76.01
2022-09-15T11:45:23.435Z,77.41
2022-09-15T11:46:37.374Z,76.08
2022-09-15T11:47:46.424Z,75.82
2022-09-15T11:48:55.541Z,75.40
2022-09-15T11:50:07.179Z,75.72
2022-09-15T11:51:12.780Z,75.78
2022-09-15T11:52:33.667Z,74.74
2022-09-15T11:53:42.668Z,74.32
2022-09-15T11:54:48.103Z,74.21
2022-09-15T11:55:56.976Z,73.76
2022-09-15T11:57:00.271Z,75.53
2022-09-15T11:58:25.997Z,74.92
2022-09-15T11:59:33.808Z,74.40
2022-09-15T12:00:39.500Z,74.67
2022-09-15T12:02:00.639Z,75.81
2022-09-15T12:03:22.910Z,75.60
2022-09-15T12:04:32.212Z,75.72
2022-09-15T12:05:38.244Z,75.76
2022-09-15T12:07:03.926Z,75.16
2022-09-15T12:08:15.538Z,75.01
2022-09-15T12:09:20.665Z,76.00
2022-09-15T12:10:33.050Z,76.05
2022-09-15T12:11:38.189Z,75.65
2022-09-15T12:12:45.414Z,75.66
2022-09-15T12:13:49.594Z,75.28
2022-09-15T12:14:52.466Z,74.88
2022-09-15T12:15:55.534Z,74.88
2022-09-15T12:16:59.945Z,74.76
2022-09-15T12:18:37.175Z,74.24
2022-09-15T12:19:35.565Z,74.29
2022-09-15T12:20:42.970Z,73.68
2022-09-15T12:21:52.395Z,73.54
2022-09-15T12:23:03.918Z,73.54
2022-09-15T12:24:21.435Z,73.69
2022-09-15T12:25:35.304Z,73.71
2022-09-15T12:26:38.160Z,73.22
2022-09-15T12:27:40.152Z,73.20
2022-09-15T12:29:00.221Z,73.14
2022-09-15T12:30:03.439Z,72.78
2022-09-15T12:32:33.414Z,72.75
2022-09-15T12:33:55.583Z,71.85
2022-09-15T12:35:04.151Z,71.71
2022-09-15T12:36:42.048Z,71.55
2022-09-15T12:37:58.339Z,71.50
2022-09-15T12:39:04.139Z,71.26
2022-09-15T12:40:28.917Z,72.96
2022-09-15T12:41:32.317Z,72.87
2022-09-15T12:42:36.894Z,72.92
2022-09-15T12:43:39.394Z,73.14
2022-09-15T12:44:48.018Z,73.26
2022-09-15T12:45:59.199Z,73.85
2022-09-15T12:47:05.961Z,73.63
2022-09-15T12:48:17.417Z,73.53
2022-09-15T12:49:23.011Z,73.81
2022-09-15T12:50:28.752Z,74.71
2022-09-15T12:51:30.794Z,74.80
2022-09-15T12:52:42.309Z,76.07
2022-09-15T12:53:52.147Z,75.87
2022-09-15T12:54:57.977Z,77.62
2022-09-15T12:56:05.872Z,78.05
2022-09-15T12:57:21.300Z,78.87
2022-09-15T12:58:41.894Z,79.69
2022-09-15T12:59:43.951Z,80.47
2022-09-15T13:01:13.931Z,80.89
2022-09-15T13:01:52.058Z,80.95
2022-09-15T13:02:55.146Z,80.95
2022-09-15T13:04:02.020Z,81.19
2022-09-15T13:05:04.583Z,82.04
2022-09-15T13:06:19.309Z,81.28
2022-09-15T13:07:24.048Z,83.04
2022-09-15T13:08:32.432Z,81.91
2022-09-15T13:09:47.266Z,82.10
2022-09-15T13:11:01.993Z,81.63
2022-09-15T13:12:07.110Z,82.10
2022-09-15T13:13:18.805Z,82.18
2022-09-15T13:14:24.520Z,82.46
2022-09-15T13:15:28.314Z,82.47
2022-09-15T13:16:52.978Z,82.07
2022-09-15T13:17:56.184Z,82.46
2022-09-15T13:19:27.777Z,82.22
2022-09-15T13:20:33.920Z,82.18
2022-09-15T13:21:39.473Z,82.89
2022-09-15T13:22:47.173Z,83.61
2022-09-15T13:23:52.334Z,83.71
2022-09-15T13:25:07.161Z,83.10
2022-09-15T13:26:13.677Z,82.29
2022-09-15T13:27:19.296Z,82.15
2022-09-15T13:28:22.140Z,82.97
2022-09-15T13:29:26.854Z,81.99
2022-09-15T13:30:33.210Z,82.07
2022-09-15T13:31:45.834Z,81.68
2022-09-15T13:32:57.156Z,81.37
2022-09-15T13:35:27.745Z,83.75
2022-09-15T13:38:21.845Z,82.81
2022-09-15T13:39:45.110Z,83.42
2022-09-15T13:41:07.744Z,82.72
2022-09-15T13:42:19.341Z,82.73
2022-09-15T13:43:38.742Z,82.37
2022-09-15T13:45:06.989Z,83.31
2022-09-15T13:46:15.700Z,82.75
2022-09-15T13:47:38.079Z,82.13
2022-09-15T13:48:43.668Z,81.93
2022-09-15T13:50:25.034Z,82.31
2022-09-15T13:51:30.396Z,82.98
2022-09-15T13:52:58.639Z,82.96
2022-09-15T13:54:09.366Z,83.72
2022-09-15T13:55:18.410Z,83.68
2022-09-15T13:56:30.701Z,84.17
2022-09-15T13:59:03.048Z,84.89
2022-09-15T13:59:47.418Z,85.36
2022-09-15T14:01:02.321Z,85.66
2022-09-15T14:02:08.412Z,86.93
2022-09-15T14:03:17.057Z,86.34
2022-09-15T14:04:25.535Z,87.49
2022-09-15T14:05:30.649Z,87.75
2022-09-15T14:06:37.288Z,87.73
2022-09-15T14:07:40.600Z,87.15
2022-09-15T14:08:46.256Z,86.83
2022-09-15T14:09:50.081Z,88.33
2022-09-15T14:11:00.386Z,87.48
2022-09-15T14:12:06.075Z,87.75
2022-09-15T14:13:11.686Z,87.83
2022-09-15T14:14:34.708Z,87.24
2022-09-15T14:15:37.190Z,88.58
2022-09-15T14:16:39.735Z,87.88
2022-09-15T14:17:46.121Z,88.29
2022-09-15T14:18:48.586Z,88.84
2022-09-15T14:19:58.671Z,88.86
2022-09-15T14:21:05.234Z,88.87
2022-09-15T14:22:19.752Z,89.25
2022-09-15T14:23:22.383Z,89.76
2022-09-15T14:24:30.895Z,89.47
2022-09-15T14:25:34.369Z,90.06
2022-09-15T14:26:37.845Z,89.73
2022-09-15T14:27:44.370Z,89.50
2022-09-15T14:28:58.687Z,89.54
2022-09-15T14:30:10.961Z,89.37
2022-09-15T14:31:13.498Z,89.49
2022-09-15T14:32:17.221Z,88.57
2022-09-15T14:33:19.500Z,88.83
2022-09-15T14:34:25.527Z,88.93
2022-09-15T14:35:36.547Z,90.82